createdAt,value
2023-03-27T00:05:19.571Z,100
2023-03-27T00:25:24.399Z,100
2023-03-27T00:35:26.152Z,100
2023-03-27T00:55:29.831Z,100
2023-03-27T01:05:31.865Z,100
2023-03-27T01:15:33.789Z,100
2023-03-27T01:25:35.974Z,100
2023-03-27T01:35:38.531Z,100
2023-03-27T01:45:40.355Z,100
2023-03-27T01:55:42.444Z,100
2023-03-27T02:05:45.007Z,100
2023-03-27T02:15:47.376Z,100
2023-03-27T02:25:49.246Z,100
2023-03-27T02:45:53.497Z,100
2023-03-27T02:55:55.448Z,100
2023-03-27T03:05:57.995Z,100
2023-03-27T03:15:59.928Z,100
2023-03-27T03:36:04.884Z,100
2023-03-27T03:46:06.970Z,100
2023-03-27T03:56:08.975Z,100
2023-03-27T04:06:11.663Z,100
2023-03-27T04:26:16.500Z,100
2023-03-27T04:36:18.890Z,100
2023-03-27T04:46:21.331Z,100
2023-03-27T04:56:23.768Z,100
2023-03-27T05:16:27.478Z,100
2023-03-27T05:36:31.838Z,100
2023-03-27T06:16:41.532Z,100
2023-03-27T07:26:57.877Z,100
2023-03-27T07:37:00.036Z,100
2023-03-27T08:07:06.895Z,99
2023-03-27T08:27:11.489Z,92
2023-03-27T08:57:17.063Z,82
2023-03-27T09:17:21.434Z,82
2023-03-27T09:27:24.039Z,82
2023-03-27T09:37:26.407Z,80
2023-03-27T09:47:28.875Z,78
2023-03-27T11:47:55.239Z,100
2023-03-27T11:57:57.248Z,100
2023-03-27T12:07:59.284Z,92
2023-03-27T12:18:02.008Z,82
2023-03-27T12:28:04.553Z,80
2023-03-27T12:38:06.893Z,82
2023-03-27T12:58:10.502Z,90
2023-03-27T13:18:14.533Z,78
2023-03-27T13:28:16.223Z,74
2023-03-27T13:38:18.233Z,74
2023-03-27T13:48:20.831Z,73
2023-03-27T14:08:25.518Z,100
2023-03-27T14:18:28.053Z,100
2023-03-27T14:28:29.848Z,95
2023-03-27T14:38:31.637Z,96
2023-03-27T14:48:33.620Z,90
2023-03-27T14:58:35.669Z,81
2023-03-27T15:08:38.066Z,67
2023-03-27T15:18:39.817Z,62
2023-03-27T15:28:41.588Z,61
2023-03-27T15:38:43.626Z,58
2023-03-27T15:48:45.719Z,60
2023-03-27T15:58:47.699Z,52
2023-03-27T16:08:49.514Z,55
2023-03-27T16:18:51.280Z,57
2023-03-27T16:28:52.975Z,57
2023-03-27T16:38:55.368Z,61
2023-03-27T16:48:57.624Z,62
2023-03-27T16:58:59.350Z,66
2023-03-27T17:09:01.118Z,69
2023-03-27T17:19:03.375Z,73
2023-03-27T17:29:15.856Z,76
2023-03-27T17:39:18.158Z,77
2023-03-27T17:49:19.945Z,79
2023-03-27T17:59:22.550Z,81
2023-03-27T18:09:24.333Z,83
2023-03-27T18:19:26.623Z,85
2023-03-27T18:29:28.586Z,86
2023-03-27T18:39:30.775Z,87
2023-03-27T18:49:33.087Z,86
2023-03-27T18:59:35.121Z,86
2023-03-27T19:09:41.237Z,88
2023-03-27T19:19:39.311Z,87
2023-03-27T19:29:41.088Z,87
2023-03-27T19:39:43.264Z,87
2023-03-27T19:49:44.951Z,87
2023-03-27T20:09:49.575Z,88
2023-03-27T20:39:55.904Z,91
2023-03-27T20:49:57.937Z,93
2023-03-27T21:00:00.620Z,94
2023-03-27T21:10:03.263Z,95
2023-03-27T21:20:05.205Z,96
2023-03-27T21:30:07.418Z,97
2023-03-27T21:40:09.327Z,98
2023-03-27T21:50:11.615Z,98
2023-03-27T22:00:13.323Z,97
